sensor_id;sensor_type;location;lat;lon;timestamp;P1;durP1;ratioP1;P2;durP2;ratioP2
34585;SDS011;20816;50.950;11.108;2023-07-02T00:02:18;0.73;;;0.70;;
34585;SDS011;20816;50.950;11.108;2023-07-02T00:04:45;1.00;;;0.57;;
34585;SDS011;20816;50.950;11.108;2023-07-02T00:07:12;0.40;;;0.40;;
34585;SDS011;20816;50.950;11.108;2023-07-02T00:09:41;0.50;;;0.50;;
34585;SDS011;20816;50.950;11.108;2023-07-02T00:12:07;0.65;;;0.57;;
34585;SDS011;20816;50.950;11.108;2023-07-02T00:14:35;1.10;;;0.80;;
34585;SDS011;20816;50.950;11.108;2023-07-02T00:17:01;0.50;;;0.50;;
34585;SDS011;20816;50.950;11.108;2023-07-02T00:19:30;1.20;;;0.68;;
34585;SDS011;20816;50.950;11.108;2023-07-02T00:21:57;0.63;;;0.57;;
34585;SDS011;20816;50.950;11.108;2023-07-02T00:24:24;0.95;;;0.68;;
34585;SDS011;20816;50.950;11.108;2023-07-02T00:26:51;0.95;;;0.85;;
34585;SDS011;20816;50.950;11.108;2023-07-02T00:29:17;1.10;;;0.93;;
34585;SDS011;20816;50.950;11.108;2023-07-02T00:31:44;1.27;;;1.05;;
34585;SDS011;20816;50.950;11.108;2023-07-02T00:34:10;1.00;;;0.80;;
34585;SDS011;20816;50.950;11.108;2023-07-02T00:36:37;1.08;;;0.82;;
34585;SDS011;20816;50.950;11.108;2023-07-02T00:39:04;0.77;;;0.75;;
34585;SDS011;20816;50.950;11.108;2023-07-02T00:41:30;1.05;;;0.70;;
34585;SDS011;20816;50.950;11.108;2023-07-02T00:43:57;0.75;;;0.75;;
34585;SDS011;20816;50.950;11.108;2023-07-02T00:46:24;1.67;;;0.80;;
34585;SDS011;20816;50.950;11.108;2023-07-02T00:48:53;2.25;;;1.00;;
34585;SDS011;20816;50.950;11.108;2023-07-02T00:51:22;1.02;;;0.70;;
34585;SDS011;20816;50.950;11.108;2023-07-02T00:53:51;1.17;;;0.82;;
34585;SDS011;20816;50.950;11.108;2023-07-02T00:56:24;1.17;;;0.82;;
34585;SDS011;20816;50.950;11.108;2023-07-02T00:58:55;1.25;;;1.15;;
34585;SDS011;20816;50.950;11.108;2023-07-02T01:01:25;1.00;;;1.00;;
34585;SDS011;20816;50.950;11.108;2023-07-02T01:04:01;1.27;;;1.17;;
34585;SDS011;20816;50.950;11.108;2023-07-02T01:06:30;1.85;;;1.00;;
34585;SDS011;20816;50.950;11.108;2023-07-02T01:08:59;1.10;;;1.00;;
34585;SDS011;20816;50.950;11.108;2023-07-02T01:11:28;0.93;;;0.80;;
34585;SDS011;20816;50.950;11.108;2023-07-02T01:14:04;1.08;;;0.90;;
34585;SDS011;20816;50.950;11.108;2023-07-02T01:16:34;2.13;;;0.98;;
34585;SDS011;20816;50.950;11.108;2023-07-02T01:19:04;1.23;;;0.98;;
34585;SDS011;20816;50.950;11.108;2023-07-02T01:21:36;1.55;;;1.15;;
34585;SDS011;20816;50.950;11.108;2023-07-02T01:24:03;1.30;;;1.00;;
34585;SDS011;20816;50.950;11.108;2023-07-02T01:26:30;1.00;;;0.90;;
34585;SDS011;20816;50.950;11.108;2023-07-02T01:29:16;1.08;;;0.98;;
34585;SDS011;20816;50.950;11.108;2023-07-02T01:31:45;1.13;;;1.00;;
34585;SDS011;20816;50.950;11.108;2023-07-02T01:34:12;0.90;;;0.85;;
34585;SDS011;20816;50.950;11.108;2023-07-02T01:36:40;1.33;;;1.23;;
34585;SDS011;20816;50.950;11.108;2023-07-02T01:39:07;1.42;;;1.20;;
34585;SDS011;20816;50.950;11.108;2023-07-02T01:41:36;0.95;;;0.95;;
34585;SDS011;20816;50.950;11.108;2023-07-02T01:44:07;1.77;;;0.90;;
34585;SDS011;20816;50.950;11.108;2023-07-02T01:46:36;1.05;;;0.88;;
34585;SDS011;20816;50.950;11.108;2023-07-02T01:49:03;2.95;;;1.13;;
34585;SDS011;20816;50.950;11.108;2023-07-02T01:51:30;1.13;;;1.02;;
34585;SDS011;20816;50.950;11.108;2023-07-02T01:53:57;3.67;;;1.00;;
34585;SDS011;20816;50.950;11.108;2023-07-02T01:56:23;1.45;;;1.35;;
34585;SDS011;20816;50.950;11.108;2023-07-02T01:58:50;1.50;;;1.40;;
34585;SDS011;20816;50.950;11.108;2023-07-02T02:01:16;1.17;;;0.90;;
34585;SDS011;20816;50.950;11.108;2023-07-02T02:03:43;0.73;;;0.60;;
34585;SDS011;20816;50.950;11.108;2023-07-02T02:06:10;2.88;;;1.23;;
34585;SDS011;20816;50.950;11.108;2023-07-02T02:08:37;2.50;;;0.85;;
34585;SDS011;20816;50.950;11.108;2023-07-02T02:11:03;0.73;;;0.73;;
34585;SDS011;20816;50.950;11.108;2023-07-02T02:13:30;1.25;;;1.15;;
34585;SDS011;20816;50.950;11.108;2023-07-02T02:15:57;1.92;;;0.75;;
34585;SDS011;20816;50.950;11.108;2023-07-02T02:18:24;0.65;;;0.65;;
34585;SDS011;20816;50.950;11.108;2023-07-02T02:20:50;1.70;;;1.00;;
34585;SDS011;20816;50.950;11.108;2023-07-02T02:23:17;1.45;;;0.98;;
34585;SDS011;20816;50.950;11.108;2023-07-02T02:25:44;1.90;;;1.00;;
34585;SDS011;20816;50.950;11.108;2023-07-02T02:28:11;1.27;;;0.95;;
34585;SDS011;20816;50.950;11.108;2023-07-02T02:30:37;1.30;;;1.20;;
34585;SDS011;20816;50.950;11.108;2023-07-02T02:33:04;0.98;;;0.93;;
34585;SDS011;20816;50.950;11.108;2023-07-02T02:35:31;1.63;;;1.35;;
34585;SDS011;20816;50.950;11.108;2023-07-02T02:37:57;1.00;;;1.00;;
34585;SDS011;20816;50.950;11.108;2023-07-02T02:40:24;3.67;;;1.20;;
34585;SDS011;20816;50.950;11.108;2023-07-02T02:42:50;3.70;;;1.27;;
34585;SDS011;20816;50.950;11.108;2023-07-02T02:45:17;1.30;;;1.10;;
34585;SDS011;20816;50.950;11.108;2023-07-02T02:47:45;3.70;;;1.30;;
34585;SDS011;20816;50.950;11.108;2023-07-02T02:50:12;0.85;;;0.85;;
34585;SDS011;20816;50.950;11.108;2023-07-02T02:52:40;3.72;;;1.23;;
34585;SDS011;20816;50.950;11.108;2023-07-02T02:55:07;2.78;;;1.40;;
34585;SDS011;20816;50.950;11.108;2023-07-02T02:57:36;13.27;;;1.65;;
34585;SDS011;20816;50.950;11.108;2023-07-02T03:00:03;1.10;;;1.00;;
34585;SDS011;20816;50.950;11.108;2023-07-02T03:02:31;1.63;;;1.20;;
34585;SDS011;20816;50.950;11.108;2023-07-02T03:04:58;1.48;;;1.38;;
34585;SDS011;20816;50.950;11.108;2023-07-02T03:07:28;1.20;;;1.10;;
34585;SDS011;20816;50.950;11.108;2023-07-02T03:09:55;1.33;;;1.23;;
34585;SDS011;20816;50.950;11.108;2023-07-02T03:12:22;1.60;;;1.50;;
34585;SDS011;20816;50.950;11.108;2023-07-02T03:14:52;4.07;;;1.48;;
34585;SDS011;20816;50.950;11.108;2023-07-02T03:17:21;1.60;;;1.38;;
34585;SDS011;20816;50.950;11.108;2023-07-02T03:19:48;1.30;;;1.20;;
34585;SDS011;20816;50.950;11.108;2023-07-02T03:22:15;1.38;;;1.27;;
34585;SDS011;20816;50.950;11.108;2023-07-02T03:24:41;1.08;;;1.02;;
34585;SDS011;20816;50.950;11.108;2023-07-02T03:27:08;1.60;;;1.48;;
34585;SDS011;20816;50.950;11.108;2023-07-02T03:29:35;1.75;;;1.27;;
34585;SDS011;20816;50.950;11.108;2023-07-02T03:32:04;1.77;;;1.67;;
34585;SDS011;20816;50.950;11.108;2023-07-02T03:34:31;1.85;;;1.65;;
34585;SDS011;20816;50.950;11.108;2023-07-02T03:36:58;1.55;;;1.30;;
34585;SDS011;20816;50.950;11.108;2023-07-02T03:39:25;1.13;;;1.10;;
34585;SDS011;20816;50.950;11.108;2023-07-02T03:41:52;1.60;;;1.40;;
34585;SDS011;20816;50.950;11.108;2023-07-02T03:44:19;2.53;;;2.05;;
34585;SDS011;20816;50.950;11.108;2023-07-02T03:46:46;1.30;;;1.20;;
34585;SDS011;20816;50.950;11.108;2023-07-02T03:49:12;2.72;;;1.67;;
34585;SDS011;20816;50.950;11.108;2023-07-02T03:51:39;2.92;;;1.40;;
34585;SDS011;20816;50.950;11.108;2023-07-02T03:54:06;1.65;;;0.98;;
34585;SDS011;20816;50.950;11.108;2023-07-02T03:56:32;2.03;;;1.73;;
34585;SDS011;20816;50.950;11.108;2023-07-02T03:58:59;2.80;;;1.90;;
34585;SDS011;20816;50.950;11.108;2023-07-02T04:01:26;2.08;;;1.60;;
34585;SDS011;20816;50.950;11.108;2023-07-02T04:03:52;1.58;;;1.40;;
34585;SDS011;20816;50.950;11.108;2023-07-02T04:06:20;1.88;;;1.20;;
34585;SDS011;20816;50.950;11.108;2023-07-02T04:08:47;1.45;;;1.30;;
34585;SDS011;20816;50.950;11.108;2023-07-02T04:11:13;4.55;;;1.48;;
34585;SDS011;20816;50.950;11.108;2023-07-02T04:13:40;1.70;;;1.60;;
34585;SDS011;20816;50.950;11.108;2023-07-02T04:16:07;4.28;;;1.48;;
34585;SDS011;20816;50.950;11.108;2023-07-02T04:18:34;1.33;;;1.23;;
34585;SDS011;20816;50.950;11.108;2023-07-02T04:21:01;2.05;;;1.10;;
34585;SDS011;20816;50.950;11.108;2023-07-02T04:23:28;2.58;;;1.77;;
34585;SDS011;20816;50.950;11.108;2023-07-02T04:25:56;2.30;;;1.02;;
34585;SDS011;20816;50.950;11.108;2023-07-02T04:28:43;0.75;;;0.75;;
34585;SDS011;20816;50.950;11.108;2023-07-02T04:31:09;1.48;;;1.23;;
34585;SDS011;20816;50.950;11.108;2023-07-02T04:33:36;1.20;;;1.10;;
34585;SDS011;20816;50.950;11.108;2023-07-02T04:36:03;1.98;;;1.25;;
34585;SDS011;20816;50.950;11.108;2023-07-02T04:38:30;1.08;;;0.98;;
34585;SDS011;20816;50.950;11.108;2023-07-02T04:40:57;1.50;;;1.40;;
34585;SDS011;20816;50.950;11.108;2023-07-02T04:43:27;1.50;;;1.40;;
34585;SDS011;20816;50.950;11.108;2023-07-02T04:45:57;3.17;;;1.38;;
34585;SDS011;20816;50.950;11.108;2023-07-02T04:48:24;1.67;;;1.17;;
34585;SDS011;20816;50.950;11.108;2023-07-02T04:50:51;1.45;;;0.93;;
34585;SDS011;20816;50.950;11.108;2023-07-02T04:53:17;0.98;;;0.90;;
34585;SDS011;20816;50.950;11.108;2023-07-02T04:55:44;1.33;;;0.90;;
34585;SDS011;20816;50.950;11.108;2023-07-02T04:58:11;1.10;;;0.90;;
34585;SDS011;20816;50.950;11.108;2023-07-02T05:00:37;1.20;;;1.10;;
34585;SDS011;20816;50.950;11.108;2023-07-02T05:03:04;2.17;;;1.30;;
34585;SDS011;20816;50.950;11.108;2023-07-02T05:05:31;1.25;;;1.17;;
34585;SDS011;20816;50.950;11.108;2023-07-02T05:07:57;2.85;;;1.33;;
34585;SDS011;20816;50.950;11.108;2023-07-02T05:10:24;0.90;;;0.90;;
34585;SDS011;20816;50.950;11.108;2023-07-02T05:12:51;1.05;;;0.98;;
34585;SDS011;20816;50.950;11.108;2023-07-02T05:15:17;5.25;;;1.30;;
34585;SDS011;20816;50.950;11.108;2023-07-02T05:17:44;0.98;;;0.80;;
34585;SDS011;20816;50.950;11.108;2023-07-02T05:20:11;1.85;;;1.20;;
34585;SDS011;20816;50.950;11.108;2023-07-02T05:22:38;1.02;;;0.80;;
34585;SDS011;20816;50.950;11.108;2023-07-02T05:25:04;1.10;;;1.00;;
34585;SDS011;20816;50.950;11.108;2023-07-02T05:27:32;1.42;;;1.33;;
34585;SDS011;20816;50.950;11.108;2023-07-02T05:29:58;2.88;;;0.95;;
34585;SDS011;20816;50.950;11.108;2023-07-02T05:32:25;3.42;;;1.13;;
34585;SDS011;20816;50.950;11.108;2023-07-02T05:34:52;0.90;;;0.90;;
34585;SDS011;20816;50.950;11.108;2023-07-02T05:37:18;1.20;;;1.10;;
34585;SDS011;20816;50.950;11.108;2023-07-02T05:39:45;1.00;;;0.90;;
34585;SDS011;20816;50.950;11.108;2023-07-02T05:42:12;0.95;;;0.90;;
34585;SDS011;20816;50.950;11.108;2023-07-02T05:44:38;1.98;;;1.23;;
34585;SDS011;20816;50.950;11.108;2023-07-02T05:47:05;1.17;;;0.90;;
34585;SDS011;20816;50.950;11.108;2023-07-02T05:49:32;1.38;;;0.98;;
34585;SDS011;20816;50.950;11.108;2023-07-02T05:51:59;1.08;;;1.00;;
34585;SDS011;20816;50.950;11.108;2023-07-02T05:54:25;2.58;;;1.10;;
34585;SDS011;20816;50.950;11.108;2023-07-02T05:56:52;1.50;;;0.90;;
34585;SDS011;20816;50.950;11.108;2023-07-02T05:59:19;0.82;;;0.82;;
34585;SDS011;20816;50.950;11.108;2023-07-02T06:01:45;0.82;;;0.68;;
34585;SDS011;20816;50.950;11.108;2023-07-02T06:04:12;0.80;;;0.80;;
34585;SDS011;20816;50.950;11.108;2023-07-02T06:06:39;0.68;;;0.68;;
34585;SDS011;20816;50.950;11.108;2023-07-02T06:09:06;2.38;;;0.77;;
34585;SDS011;20816;50.950;11.108;2023-07-02T06:11:32;1.85;;;0.73;;
34585;SDS011;20816;50.950;11.108;2023-07-02T06:13:59;4.53;;;0.98;;
34585;SDS011;20816;50.950;11.108;2023-07-02T06:16:26;0.70;;;0.70;;
34585;SDS011;20816;50.950;11.108;2023-07-02T06:18:53;0.75;;;0.70;;
34585;SDS011;20816;50.950;11.108;2023-07-02T06:21:19;0.70;;;0.70;;
34585;SDS011;20816;50.950;11.108;2023-07-02T06:23:46;1.15;;;1.05;;
34585;SDS011;20816;50.950;11.108;2023-07-02T06:26:13;1.55;;;0.70;;
34585;SDS011;20816;50.950;11.108;2023-07-02T06:28:39;0.75;;;0.73;;
34585;SDS011;20816;50.950;11.108;2023-07-02T06:31:06;1.38;;;0.60;;
34585;SDS011;20816;50.950;11.108;2023-07-02T06:33:33;0.60;;;0.60;;
34585;SDS011;20816;50.950;11.108;2023-07-02T06:36:00;0.90;;;0.90;;
34585;SDS011;20816;50.950;11.108;2023-07-02T06:38:27;0.93;;;0.73;;
34585;SDS011;20816;50.950;11.108;2023-07-02T06:40:53;1.92;;;1.20;;
34585;SDS011;20816;50.950;11.108;2023-07-02T06:43:20;0.90;;;0.90;;
34585;SDS011;20816;50.950;11.108;2023-07-02T06:45:46;1.65;;;1.30;;
34585;SDS011;20816;50.950;11.108;2023-07-02T06:48:13;1.00;;;0.88;;
34585;SDS011;20816;50.950;11.108;2023-07-02T06:50:44;0.98;;;0.80;;
34585;SDS011;20816;50.950;11.108;2023-07-02T06:53:12;1.10;;;1.00;;
34585;SDS011;20816;50.950;11.108;2023-07-02T06:55:39;1.17;;;1.08;;
34585;SDS011;20816;50.950;11.108;2023-07-02T06:58:06;1.60;;;1.20;;
34585;SDS011;20816;50.950;11.108;2023-07-02T07:00:33;1.08;;;1.02;;
34585;SDS011;20816;50.950;11.108;2023-07-02T07:03:03;2.78;;;0.88;;
34585;SDS011;20816;50.950;11.108;2023-07-02T07:05:30;1.00;;;0.90;;
34585;SDS011;20816;50.950;11.108;2023-07-02T07:07:59;2.85;;;1.05;;
34585;SDS011;20816;50.950;11.108;2023-07-02T07:10:27;1.17;;;0.82;;
34585;SDS011;20816;50.950;11.108;2023-07-02T07:12:54;1.67;;;1.15;;
34585;SDS011;20816;50.950;11.108;2023-07-02T07:15:20;1.00;;;0.98;;
34585;SDS011;20816;50.950;11.108;2023-07-02T07:17:47;3.47;;;1.15;;
34585;SDS011;20816;50.950;11.108;2023-07-02T07:20:14;3.42;;;1.30;;
34585;SDS011;20816;50.950;11.108;2023-07-02T07:22:41;1.58;;;1.15;;
34585;SDS011;20816;50.950;11.108;2023-07-02T07:25:08;1.80;;;1.20;;
34585;SDS011;20816;50.950;11.108;2023-07-02T07:27:35;1.52;;;1.10;;
34585;SDS011;20816;50.950;11.108;2023-07-02T07:30:02;1.05;;;0.93;;
34585;SDS011;20816;50.950;11.108;2023-07-02T07:32:29;1.25;;;1.08;;
34585;SDS011;20816;50.950;11.108;2023-07-02T07:34:56;2.45;;;0.98;;
34585;SDS011;20816;50.950;11.108;2023-07-02T07:37:22;1.75;;;1.65;;
34585;SDS011;20816;50.950;11.108;2023-07-02T07:39:49;1.35;;;1.20;;
34585;SDS011;20816;50.950;11.108;2023-07-02T07:42:15;2.22;;;1.33;;
34585;SDS011;20816;50.950;11.108;2023-07-02T07:44:46;2.22;;;1.60;;
34585;SDS011;20816;50.950;11.108;2023-07-02T07:47:12;2.00;;;1.83;;
34585;SDS011;20816;50.950;11.108;2023-07-02T07:49:39;2.92;;;1.75;;
34585;SDS011;20816;50.950;11.108;2023-07-02T07:52:06;2.53;;;1.70;;
34585;SDS011;20816;50.950;11.108;2023-07-02T07:54:33;1.45;;;1.35;;
34585;SDS011;20816;50.950;11.108;2023-07-02T07:57:03;1.50;;;1.20;;
34585;SDS011;20816;50.950;11.108;2023-07-02T07:59:31;4.55;;;1.38;;
34585;SDS011;20816;50.950;11.108;2023-07-02T08:01:57;3.53;;;1.65;;
34585;SDS011;20816;50.950;11.108;2023-07-02T08:04:24;2.00;;;1.45;;
34585;SDS011;20816;50.950;11.108;2023-07-02T08:06:51;2.33;;;1.08;;
34585;SDS011;20816;50.950;11.108;2023-07-02T08:09:17;1.80;;;1.58;;
34585;SDS011;20816;50.950;11.108;2023-07-02T08:11:44;3.13;;;1.65;;
34585;SDS011;20816;50.950;11.108;2023-07-02T08:14:12;2.50;;;1.48;;
34585;SDS011;20816;50.950;11.108;2023-07-02T08:16:39;3.67;;;0.90;;
34585;SDS011;20816;50.950;11.108;2023-07-02T08:19:05;1.65;;;1.30;;
34585;SDS011;20816;50.950;11.108;2023-07-02T08:21:32;1.98;;;0.75;;
34585;SDS011;20816;50.950;11.108;2023-07-02T08:23:59;1.65;;;1.35;;
34585;SDS011;20816;50.950;11.108;2023-07-02T08:26:25;4.53;;;1.23;;
34585;SDS011;20816;50.950;11.108;2023-07-02T08:28:52;1.30;;;0.90;;
34585;SDS011;20816;50.950;11.108;2023-07-02T08:31:19;1.58;;;1.00;;
34585;SDS011;20816;50.950;11.108;2023-07-02T08:33:46;3.58;;;0.98;;
34585;SDS011;20816;50.950;11.108;2023-07-02T08:36:12;1.67;;;1.33;;
34585;SDS011;20816;50.950;11.108;2023-07-02T08:38:40;1.38;;;0.93;;
34585;SDS011;20816;50.950;11.108;2023-07-02T08:41:08;3.15;;;1.15;;
34585;SDS011;20816;50.950;11.108;2023-07-02T08:43:35;4.28;;;1.65;;
34585;SDS011;20816;50.950;11.108;2023-07-02T08:46:02;1.52;;;1.40;;
34585;SDS011;20816;50.950;11.108;2023-07-02T08:48:29;3.45;;;1.50;;
34585;SDS011;20816;50.950;11.108;2023-07-02T08:50:56;2.10;;;1.30;;
34585;SDS011;20816;50.950;11.108;2023-07-02T08:53:23;1.55;;;0.98;;
34585;SDS011;20816;50.950;11.108;2023-07-02T08:55:56;1.88;;;1.42;;
34585;SDS011;20816;50.950;11.108;2023-07-02T08:58:22;1.17;;;0.75;;
34585;SDS011;20816;50.950;11.108;2023-07-02T09:01:11;2.42;;;1.30;;
34585;SDS011;20816;50.950;11.108;2023-07-02T09:03:40;2.17;;;1.10;;
34585;SDS011;20816;50.950;11.108;2023-07-02T09:06:08;1.42;;;1.00;;
34585;SDS011;20816;50.950;11.108;2023-07-02T09:08:36;2.45;;;1.23;;
34585;SDS011;20816;50.950;11.108;2023-07-02T09:16:32;3.55;;;1.25;;
34585;SDS011;20816;50.950;11.108;2023-07-02T09:19:03;3.67;;;1.15;;
34585;SDS011;20816;50.950;11.108;2023-07-02T09:26:46;2.00;;;1.20;;
34585;SDS011;20816;50.950;11.108;2023-07-02T09:32:01;1.77;;;1.25;;
34585;SDS011;20816;50.950;11.108;2023-07-02T09:38:22;3.22;;;1.35;;
34585;SDS011;20816;50.950;11.108;2023-07-02T09:40:50;2.72;;;1.92;;
34585;SDS011;20816;50.950;11.108;2023-07-02T09:43:18;1.85;;;1.20;;
34585;SDS011;20816;50.950;11.108;2023-07-02T09:45:46;1.90;;;1.08;;
34585;SDS011;20816;50.950;11.108;2023-07-02T09:48:14;4.40;;;1.65;;
34585;SDS011;20816;50.950;11.108;2023-07-02T09:50:43;2.83;;;1.50;;
34585;SDS011;20816;50.950;11.108;2023-07-02T09:53:11;2.25;;;1.30;;
34585;SDS011;20816;50.950;11.108;2023-07-02T09:55:39;2.90;;;1.30;;
34585;SDS011;20816;50.950;11.108;2023-07-02T09:58:08;5.10;;;1.63;;
34585;SDS011;20816;50.950;11.108;2023-07-02T10:00:35;2.88;;;1.75;;
34585;SDS011;20816;50.950;11.108;2023-07-02T10:03:01;1.98;;;1.20;;
34585;SDS011;20816;50.950;11.108;2023-07-02T10:05:29;2.38;;;1.30;;
34585;SDS011;20816;50.950;11.108;2023-07-02T10:07:57;3.78;;;1.90;;
34585;SDS011;20816;50.950;11.108;2023-07-02T10:10:26;2.92;;;2.13;;
34585;SDS011;20816;50.950;11.108;2023-07-02T10:12:57;5.07;;;2.03;;
34585;SDS011;20816;50.950;11.108;2023-07-02T10:15:25;4.65;;;3.00;;
34585;SDS011;20816;50.950;11.108;2023-07-02T10:17:56;1.70;;;1.42;;
34585;SDS011;20816;50.950;11.108;2023-07-02T10:20:31;5.50;;;1.80;;
34585;SDS011;20816;50.950;11.108;2023-07-02T10:23:08;1.88;;;1.73;;
34585;SDS011;20816;50.950;11.108;2023-07-02T10:25:36;2.08;;;1.45;;
34585;SDS011;20816;50.950;11.108;2023-07-02T10:28:14;2.72;;;1.70;;
34585;SDS011;20816;50.950;11.108;2023-07-02T10:30:41;5.70;;;1.73;;
34585;SDS011;20816;50.950;11.108;2023-07-02T10:33:15;5.32;;;2.47;;
34585;SDS011;20816;50.950;11.108;2023-07-02T10:35:43;2.90;;;1.98;;
34585;SDS011;20816;50.950;11.108;2023-07-02T10:38:14;4.97;;;1.83;;
34585;SDS011;20816;50.950;11.108;2023-07-02T10:40:42;3.72;;;2.10;;
34585;SDS011;20816;50.950;11.108;2023-07-02T10:43:09;3.40;;;1.73;;
34585;SDS011;20816;50.950;11.108;2023-07-02T10:45:36;3.28;;;1.98;;
34585;SDS011;20816;50.950;11.108;2023-07-02T10:48:03;4.65;;;2.03;;
34585;SDS011;20816;50.950;11.108;2023-07-02T10:50:36;4.68;;;1.92;;
34585;SDS011;20816;50.950;11.108;2023-07-02T10:53:03;4.32;;;3.25;;
34585;SDS011;20816;50.950;11.108;2023-07-02T10:55:29;4.53;;;1.98;;
34585;SDS011;20816;50.950;11.108;2023-07-02T10:58:04;3.67;;;2.25;;
34585;SDS011;20816;50.950;11.108;2023-07-02T11:00:32;3.40;;;2.70;;
34585;SDS011;20816;50.950;11.108;2023-07-02T11:02:59;2.35;;;2.15;;
34585;SDS011;20816;50.950;11.108;2023-07-02T11:05:26;6.82;;;3.25;;
34585;SDS011;20816;50.950;11.108;2023-07-02T11:08:08;5.45;;;2.97;;
34585;SDS011;20816;50.950;11.108;2023-07-02T11:10:35;4.18;;;2.60;;
34585;SDS011;20816;50.950;11.108;2023-07-02T11:13:15;2.65;;;2.13;;
34585;SDS011;20816;50.950;11.108;2023-07-02T11:15:43;6.97;;;2.90;;
34585;SDS011;20816;50.950;11.108;2023-07-02T11:18:13;5.85;;;3.38;;
34585;SDS011;20816;50.950;11.108;2023-07-02T11:20:41;7.80;;;3.22;;
34585;SDS011;20816;50.950;11.108;2023-07-02T11:23:19;3.83;;;2.45;;
34585;SDS011;20816;50.950;11.108;2023-07-02T11:25:58;4.80;;;2.20;;
34585;SDS011;20816;50.950;11.108;2023-07-02T11:28:26;4.82;;;2.42;;
34585;SDS011;20816;50.950;11.108;2023-07-02T11:30:54;5.25;;;2.72;;
34585;SDS011;20816;50.950;11.108;2023-07-02T11:36:07;4.53;;;2.42;;
34585;SDS011;20816;50.950;11.108;2023-07-02T11:38:46;5.78;;;2.35;;
34585;SDS011;20816;50.950;11.108;2023-07-02T11:41:12;7.20;;;3.30;;
34585;SDS011;20816;50.950;11.108;2023-07-02T11:43:39;5.18;;;2.25;;
34585;SDS011;20816;50.950;11.108;2023-07-02T11:46:05;4.53;;;2.63;;
34585;SDS011;20816;50.950;11.108;2023-07-02T11:48:32;4.47;;;2.42;;
34585;SDS011;20816;50.950;11.108;2023-07-02T11:50:59;3.85;;;2.00;;
34585;SDS011;20816;50.950;11.108;2023-07-02T11:53:25;3.88;;;2.50;;
34585;SDS011;20816;50.950;11.108;2023-07-02T11:55:52;4.50;;;2.30;;
34585;SDS011;20816;50.950;11.108;2023-07-02T11:58:18;4.88;;;2.90;;
34585;SDS011;20816;50.950;11.108;2023-07-02T12:00:45;4.65;;;2.33;;
34585;SDS011;20816;50.950;11.108;2023-07-02T12:03:12;5.85;;;2.42;;
34585;SDS011;20816;50.950;11.108;2023-07-02T12:05:39;4.70;;;2.33;;
34585;SDS011;20816;50.950;11.108;2023-07-02T12:08:05;3.58;;;2.30;;
34585;SDS011;20816;50.950;11.108;2023-07-02T12:10:35;3.92;;;2.42;;
34585;SDS011;20816;50.950;11.108;2023-07-02T12:13:04;4.55;;;2.20;;
34585;SDS011;20816;50.950;11.108;2023-07-02T12:15:30;6.78;;;2.85;;
34585;SDS011;20816;50.950;11.108;2023-07-02T12:17:57;4.88;;;2.72;;
34585;SDS011;20816;50.950;11.108;2023-07-02T12:20:23;3.90;;;2.30;;
34585;SDS011;20816;50.950;11.108;2023-07-02T12:22:50;5.28;;;2.72;;
34585;SDS011;20816;50.950;11.108;2023-07-02T12:25:17;7.05;;;2.97;;
34585;SDS011;20816;50.950;11.108;2023-07-02T12:27:43;7.80;;;2.70;;
34585;SDS011;20816;50.950;11.108;2023-07-02T12:30:10;5.78;;;2.63;;
34585;SDS011;20816;50.950;11.108;2023-07-02T12:32:38;3.92;;;2.47;;
34585;SDS011;20816;50.950;11.108;2023-07-02T12:35:05;4.07;;;2.53;;
34585;SDS011;20816;50.950;11.108;2023-07-02T12:37:31;6.70;;;3.05;;
34585;SDS011;20816;50.950;11.108;2023-07-02T12:39:58;6.93;;;3.35;;
34585;SDS011;20816;50.950;11.108;2023-07-02T12:42:27;4.32;;;2.53;;
34585;SDS011;20816;50.950;11.108;2023-07-02T12:44:53;6.50;;;2.63;;
34585;SDS011;20816;50.950;11.108;2023-07-02T12:47:20;4.32;;;2.35;;
34585;SDS011;20816;50.950;11.108;2023-07-02T12:49:47;5.60;;;2.65;;
34585;SDS011;20816;50.950;11.108;2023-07-02T12:52:13;3.75;;;2.33;;
34585;SDS011;20816;50.950;11.108;2023-07-02T12:54:40;9.85;;;3.28;;
34585;SDS011;20816;50.950;11.108;2023-07-02T12:57:06;6.50;;;3.15;;
34585;SDS011;20816;50.950;11.108;2023-07-02T12:59:33;3.92;;;2.80;;
34585;SDS011;20816;50.950;11.108;2023-07-02T13:02:00;4.85;;;2.45;;
34585;SDS011;20816;50.950;11.108;2023-07-02T13:04:26;4.72;;;2.80;;
34585;SDS011;20816;50.950;11.108;2023-07-02T13:06:53;8.00;;;3.60;;
34585;SDS011;20816;50.950;11.108;2023-07-02T13:09:20;8.45;;;3.75;;
34585;SDS011;20816;50.950;11.108;2023-07-02T13:11:47;5.32;;;3.17;;
34585;SDS011;20816;50.950;11.108;2023-07-02T13:14:13;5.93;;;2.92;;
34585;SDS011;20816;50.950;11.108;2023-07-02T13:16:40;4.93;;;2.75;;
34585;SDS011;20816;50.950;11.108;2023-07-02T13:19:07;8.02;;;3.25;;
34585;SDS011;20816;50.950;11.108;2023-07-02T13:21:33;7.00;;;3.60;;
34585;SDS011;20816;50.950;11.108;2023-07-02T13:24:00;12.10;;;4.43;;
34585;SDS011;20816;50.950;11.108;2023-07-02T13:26:26;5.82;;;3.60;;
34585;SDS011;20816;50.950;11.108;2023-07-02T13:28:53;8.23;;;2.88;;
34585;SDS011;20816;50.950;11.108;2023-07-02T13:31:19;7.15;;;3.38;;
34585;SDS011;20816;50.950;11.108;2023-07-02T13:33:46;7.85;;;3.80;;
34585;SDS011;20816;50.950;11.108;2023-07-02T13:36:13;7.07;;;3.88;;
34585;SDS011;20816;50.950;11.108;2023-07-02T13:38:39;7.22;;;3.05;;
34585;SDS011;20816;50.950;11.108;2023-07-02T13:41:06;4.43;;;2.97;;
34585;SDS011;20816;50.950;11.108;2023-07-02T13:43:33;6.43;;;3.47;;
34585;SDS011;20816;50.950;11.108;2023-07-02T13:45:59;6.75;;;2.88;;
34585;SDS011;20816;50.950;11.108;2023-07-02T13:48:26;6.38;;;3.58;;
34585;SDS011;20816;50.950;11.108;2023-07-02T13:50:54;10.07;;;4.57;;
34585;SDS011;20816;50.950;11.108;2023-07-02T13:53:21;7.88;;;3.65;;
34585;SDS011;20816;50.950;11.108;2023-07-02T13:55:48;13.18;;;3.67;;
34585;SDS011;20816;50.950;11.108;2023-07-02T13:58:15;7.63;;;3.15;;
34585;SDS011;20816;50.950;11.108;2023-07-02T14:00:55;4.93;;;3.05;;
34585;SDS011;20816;50.950;11.108;2023-07-02T14:03:21;10.80;;;3.90;;
34585;SDS011;20816;50.950;11.108;2023-07-02T14:05:48;7.18;;;3.00;;
34585;SDS011;20816;50.950;11.108;2023-07-02T14:11:30;3.95;;;2.40;;
34585;SDS011;20816;50.950;11.108;2023-07-02T14:13:57;9.95;;;4.40;;
34585;SDS011;20816;50.950;11.108;2023-07-02T14:16:23;6.90;;;3.05;;
34585;SDS011;20816;50.950;11.108;2023-07-02T14:18:50;8.48;;;3.58;;
34585;SDS011;20816;50.950;11.108;2023-07-02T14:21:17;7.38;;;3.83;;
34585;SDS011;20816;50.950;11.108;2023-07-02T14:23:44;7.57;;;4.18;;
34585;SDS011;20816;50.950;11.108;2023-07-02T14:26:11;9.10;;;4.13;;
34585;SDS011;20816;50.950;11.108;2023-07-02T14:28:38;4.55;;;2.85;;
34585;SDS011;20816;50.950;11.108;2023-07-02T14:31:06;6.80;;;3.47;;
34585;SDS011;20816;50.950;11.108;2023-07-02T14:33:34;5.05;;;2.92;;
34585;SDS011;20816;50.950;11.108;2023-07-02T14:36:02;8.38;;;4.07;;
34585;SDS011;20816;50.950;11.108;2023-07-02T14:38:29;8.18;;;3.65;;
34585;SDS011;20816;50.950;11.108;2023-07-02T14:40:56;6.80;;;2.90;;
34585;SDS011;20816;50.950;11.108;2023-07-02T14:43:26;6.35;;;3.60;;
34585;SDS011;20816;50.950;11.108;2023-07-02T14:45:54;6.25;;;3.38;;
34585;SDS011;20816;50.950;11.108;2023-07-02T14:48:21;10.73;;;4.20;;
34585;SDS011;20816;50.950;11.108;2023-07-02T14:50:50;6.95;;;3.33;;
34585;SDS011;20816;50.950;11.108;2023-07-02T14:53:18;9.95;;;3.25;;
34585;SDS011;20816;50.950;11.108;2023-07-02T14:55:46;7.10;;;3.10;;
34585;SDS011;20816;50.950;11.108;2023-07-02T14:58:15;6.68;;;3.17;;
34585;SDS011;20816;50.950;11.108;2023-07-02T15:00:53;6.72;;;3.72;;